sensor_id;sensor_type;location;lat;lon;timestamp;pressure;altitude;pressure_sealevel;temperature;humidity
10992;BME280;5549;47.028;15.514;2023-06-14T00:00:06;96273.69;;;17.07;61.07
10992;BME280;5549;47.028;15.514;2023-06-14T00:02:34;96276.81;;;16.87;61.89
10992;BME280;5549;47.028;15.514;2023-06-14T00:05:05;96276.41;;;16.98;61.33
10992;BME280;5549;47.028;15.514;2023-06-14T00:07:34;96271.50;;;16.87;61.93
10992;BME280;5549;47.028;15.514;2023-06-14T00:10:06;96267.16;;;16.94;61.32
10992;BME280;5549;47.028;15.514;2023-06-14T00:12:34;96272.09;;;16.97;61.33
10992;BME280;5549;47.028;15.514;2023-06-14T00:15:02;96269.75;;;17.03;61.33
10992;BME280;5549;47.028;15.514;2023-06-14T00:17:33;96266.56;;;17.07;61.32
10992;BME280;5549;47.028;15.514;2023-06-14T00:20:04;96267.22;;;17.09;61.81
10992;BME280;5549;47.028;15.514;2023-06-14T00:22:33;96263.38;;;17.12;63.16
10992;BME280;5549;47.028;15.514;2023-06-14T00:25:08;96263.09;;;17.07;63.88
10992;BME280;5549;47.028;15.514;2023-06-14T00:27:38;96263.44;;;17.04;63.45
10992;BME280;5549;47.028;15.514;2023-06-14T00:30:10;96257.47;;;17.02;62.87
10992;BME280;5549;47.028;15.514;2023-06-14T00:32:38;96259.78;;;17.05;62.93
10992;BME280;5549;47.028;15.514;2023-06-14T00:35:06;96251.81;;;17.05;63.01
10992;BME280;5549;47.028;15.514;2023-06-14T00:37:37;96249.00;;;17.06;62.67
10992;BME280;5549;47.028;15.514;2023-06-14T00:40:07;96243.34;;;17.09;62.23
10992;BME280;5549;47.028;15.514;2023-06-14T00:42:37;96246.81;;;17.10;61.33
10992;BME280;5549;47.028;15.514;2023-06-14T00:45:05;96245.88;;;17.03;60.85
10992;BME280;5549;47.028;15.514;2023-06-14T00:47:37;96247.34;;;17.05;60.78
10992;BME280;5549;47.028;15.514;2023-06-14T00:50:07;96237.25;;;17.00;61.21
10992;BME280;5549;47.028;15.514;2023-06-14T00:52:38;96252.66;;;17.05;60.58
10992;BME280;5549;47.028;15.514;2023-06-14T00:55:08;96243.03;;;17.04;60.62
10992;BME280;5549;47.028;15.514;2023-06-14T00:57:39;96247.47;;;17.12;61.23
10992;BME280;5549;47.028;15.514;2023-06-14T01:00:09;96252.06;;;17.18;62.24
10992;BME280;5549;47.028;15.514;2023-06-14T01:02:44;96250.53;;;17.23;62.63
10992;BME280;5549;47.028;15.514;2023-06-14T01:05:14;96246.88;;;17.24;62.43
10992;BME280;5549;47.028;15.514;2023-06-14T01:07:55;96253.00;;;17.25;62.31
10992;BME280;5549;47.028;15.514;2023-06-14T01:10:37;96247.22;;;17.21;62.62
10992;BME280;5549;47.028;15.514;2023-06-14T01:13:12;96253.88;;;17.17;63.53
10992;BME280;5549;47.028;15.514;2023-06-14T01:15:45;96246.75;;;17.18;63.45
10992;BME280;5549;47.028;15.514;2023-06-14T01:18:16;96247.22;;;16.98;65.31
10992;BME280;5549;47.028;15.514;2023-06-14T01:20:46;96249.94;;;16.90;65.78
10992;BME280;5549;47.028;15.514;2023-06-14T01:23:20;96245.38;;;16.76;67.04
10992;BME280;5549;47.028;15.514;2023-06-14T01:25:49;96238.78;;;16.72;67.56
10992;BME280;5549;47.028;15.514;2023-06-14T01:28:20;96240.63;;;16.63;69.00
10992;BME280;5549;47.028;15.514;2023-06-14T01:30:53;96243.13;;;16.57;69.24
10992;BME280;5549;47.028;15.514;2023-06-14T01:33:26;96231.56;;;16.50;68.94
10992;BME280;5549;47.028;15.514;2023-06-14T01:35:55;96229.47;;;16.37;69.87
10992;BME280;5549;47.028;15.514;2023-06-14T01:38:27;96229.66;;;16.35;72.35
10992;BME280;5549;47.028;15.514;2023-06-14T01:40:57;96224.91;;;16.23;73.74
10992;BME280;5549;47.028;15.514;2023-06-14T01:43:26;96228.38;;;16.23;72.60
10992;BME280;5549;47.028;15.514;2023-06-14T01:45:58;96223.44;;;16.20;71.35
10992;BME280;5549;47.028;15.514;2023-06-14T01:48:27;96218.78;;;16.22;71.60
10992;BME280;5549;47.028;15.514;2023-06-14T01:50:54;96219.25;;;16.26;71.31
10992;BME280;5549;47.028;15.514;2023-06-14T01:53:25;96218.28;;;16.27;70.94
10992;BME280;5549;47.028;15.514;2023-06-14T01:55:53;96214.09;;;16.32;70.69
10992;BME280;5549;47.028;15.514;2023-06-14T01:58:21;96215.94;;;16.32;70.49
10992;BME280;5549;47.028;15.514;2023-06-14T02:00:51;96212.97;;;16.27;70.65
10992;BME280;5549;47.028;15.514;2023-06-14T02:03:21;96211.94;;;16.36;70.22
10992;BME280;5549;47.028;15.514;2023-06-14T02:05:49;96214.44;;;16.29;69.21
10992;BME280;5549;47.028;15.514;2023-06-14T02:08:17;96211.28;;;16.34;68.27
10992;BME280;5549;47.028;15.514;2023-06-14T02:10:46;96210.09;;;16.36;66.69
10992;BME280;5549;47.028;15.514;2023-06-14T02:13:13;96206.75;;;16.43;66.02
10992;BME280;5549;47.028;15.514;2023-06-14T02:15:41;96214.41;;;16.38;63.64
10992;BME280;5549;47.028;15.514;2023-06-14T02:18:10;96204.47;;;16.40;60.65
10992;BME280;5549;47.028;15.514;2023-06-14T02:20:37;96212.38;;;16.48;59.87
10992;BME280;5549;47.028;15.514;2023-06-14T02:23:08;96218.16;;;16.51;59.07
10992;BME280;5549;47.028;15.514;2023-06-14T02:25:35;96215.97;;;16.55;58.26
10992;BME280;5549;47.028;15.514;2023-06-14T02:28:07;96211.31;;;16.57;59.52
10992;BME280;5549;47.028;15.514;2023-06-14T02:30:34;96214.44;;;16.60;64.28
10992;BME280;5549;47.028;15.514;2023-06-14T02:33:02;96206.91;;;16.49;67.80
10992;BME280;5549;47.028;15.514;2023-06-14T02:35:32;96208.00;;;16.24;69.04
10992;BME280;5549;47.028;15.514;2023-06-14T02:38:02;96204.25;;;16.10;69.63
10992;BME280;5549;47.028;15.514;2023-06-14T02:40:30;96200.97;;;16.08;69.75
10992;BME280;5549;47.028;15.514;2023-06-14T02:43:00;96199.31;;;16.07;68.95
10992;BME280;5549;47.028;15.514;2023-06-14T02:45:29;96209.44;;;16.03;68.32
10992;BME280;5549;47.028;15.514;2023-06-14T02:47:59;96203.31;;;16.03;67.73
10992;BME280;5549;47.028;15.514;2023-06-14T02:50:26;96206.25;;;16.08;67.77
10992;BME280;5549;47.028;15.514;2023-06-14T02:52:56;96198.97;;;16.10;67.43
10992;BME280;5549;47.028;15.514;2023-06-14T02:55:24;96203.78;;;16.07;66.67
10992;BME280;5549;47.028;15.514;2023-06-14T02:57:52;96208.59;;;16.03;66.17
10992;BME280;5549;47.028;15.514;2023-06-14T03:00:20;96208.59;;;16.03;65.30
10992;BME280;5549;47.028;15.514;2023-06-14T03:02:49;96215.88;;;16.01;64.36
10992;BME280;5549;47.028;15.514;2023-06-14T03:05:17;96215.50;;;16.12;64.45
10992;BME280;5549;47.028;15.514;2023-06-14T03:07:47;96208.88;;;16.16;64.62
10992;BME280;5549;47.028;15.514;2023-06-14T03:10:18;96206.06;;;16.18;64.07
10992;BME280;5549;47.028;15.514;2023-06-14T03:12:46;96206.88;;;16.18;64.66
10992;BME280;5549;47.028;15.514;2023-06-14T03:15:14;96205.38;;;16.24;64.72
10992;BME280;5549;47.028;15.514;2023-06-14T03:17:43;96207.16;;;16.31;65.29
10992;BME280;5549;47.028;15.514;2023-06-14T03:20:13;96216.41;;;16.35;66.75
10992;BME280;5549;47.028;15.514;2023-06-14T03:22:41;96208.09;;;16.39;67.72
10992;BME280;5549;47.028;15.514;2023-06-14T03:25:14;96205.13;;;16.42;67.96
10992;BME280;5549;47.028;15.514;2023-06-14T03:27:42;96200.47;;;16.44;68.89
10992;BME280;5549;47.028;15.514;2023-06-14T03:30:12;96200.28;;;16.45;67.67
10992;BME280;5549;47.028;15.514;2023-06-14T03:32:40;96201.13;;;16.46;66.95
10992;BME280;5549;47.028;15.514;2023-06-14T03:35:08;96201.47;;;16.43;68.46
10992;BME280;5549;47.028;15.514;2023-06-14T03:37:44;96207.41;;;16.45;69.25
10992;BME280;5549;47.028;15.514;2023-06-14T03:40:15;96205.06;;;16.50;69.37
10992;BME280;5549;47.028;15.514;2023-06-14T03:42:42;96208.38;;;16.52;69.38
10992;BME280;5549;47.028;15.514;2023-06-14T03:45:10;96218.63;;;16.55;69.12
10992;BME280;5549;47.028;15.514;2023-06-14T03:47:38;96218.44;;;16.56;69.62
10992;BME280;5549;47.028;15.514;2023-06-14T03:50:08;96217.28;;;16.59;69.36
10992;BME280;5549;47.028;15.514;2023-06-14T03:52:39;96217.94;;;16.61;68.75
10992;BME280;5549;47.028;15.514;2023-06-14T03:55:12;96217.94;;;16.61;66.90
10992;BME280;5549;47.028;15.514;2023-06-14T03:57:42;96223.72;;;16.64;67.63
10992;BME280;5549;47.028;15.514;2023-06-14T04:00:13;96229.00;;;16.64;67.53
10992;BME280;5549;47.028;15.514;2023-06-14T04:02:41;96231.84;;;16.63;67.95
10992;BME280;5549;47.028;15.514;2023-06-14T04:05:10;96233.47;;;16.64;68.47
10992;BME280;5549;47.028;15.514;2023-06-14T04:07:37;96230.00;;;16.72;68.69
10992;BME280;5549;47.028;15.514;2023-06-14T04:10:09;96239.41;;;16.74;69.32
10992;BME280;5549;47.028;15.514;2023-06-14T04:12:41;96230.47;;;16.75;68.64
10992;BME280;5549;47.028;15.514;2023-06-14T04:15:10;96223.88;;;16.63;69.59
10992;BME280;5549;47.028;15.514;2023-06-14T04:17:39;96235.47;;;16.62;70.58
10992;BME280;5549;47.028;15.514;2023-06-14T04:20:07;96229.34;;;16.61;71.73
10992;BME280;5549;47.028;15.514;2023-06-14T04:22:38;96236.81;;;16.66;72.00
10992;BME280;5549;47.028;15.514;2023-06-14T04:25:07;96232.81;;;16.70;71.63
10992;BME280;5549;47.028;15.514;2023-06-14T04:27:39;96233.16;;;16.67;71.80
10992;BME280;5549;47.028;15.514;2023-06-14T04:30:10;96234.81;;;16.68;73.06
10992;BME280;5549;47.028;15.514;2023-06-14T04:32:41;96235.00;;;16.66;73.81
10992;BME280;5549;47.028;15.514;2023-06-14T04:35:12;96238.31;;;16.68;74.07
10992;BME280;5549;47.028;15.514;2023-06-14T04:37:43;96246.72;;;16.72;73.06
10992;BME280;5549;47.028;15.514;2023-06-14T04:40:13;96245.56;;;16.75;72.28
10992;BME280;5549;47.028;15.514;2023-06-14T04:42:43;96247.16;;;16.84;71.65
10992;BME280;5549;47.028;15.514;2023-06-14T04:45:12;96247.44;;;16.89;71.60
10992;BME280;5549;47.028;15.514;2023-06-14T04:47:41;96238.97;;;16.93;71.11
10992;BME280;5549;47.028;15.514;2023-06-14T04:50:10;96252.53;;;16.98;71.08
10992;BME280;5549;47.028;15.514;2023-06-14T04:52:39;96248.75;;;16.93;70.76
10992;BME280;5549;47.028;15.514;2023-06-14T04:55:07;96249.56;;;16.93;69.92
10992;BME280;5549;47.028;15.514;2023-06-14T04:57:35;96247.94;;;16.92;70.88
10992;BME280;5549;47.028;15.514;2023-06-14T05:00:08;96258.53;;;16.92;71.72
10992;BME280;5549;47.028;15.514;2023-06-14T05:02:38;96257.88;;;16.90;70.60
10992;BME280;5549;47.028;15.514;2023-06-14T05:05:07;96260.31;;;17.00;70.80
10992;BME280;5549;47.028;15.514;2023-06-14T05:07:37;96266.75;;;17.06;70.90
10992;BME280;5549;47.028;15.514;2023-06-14T05:10:06;96261.91;;;17.09;72.24
10992;BME280;5549;47.028;15.514;2023-06-14T05:12:34;96274.66;;;17.14;72.50
10992;BME280;5549;47.028;15.514;2023-06-14T05:15:05;96269.50;;;17.12;72.16
10992;BME280;5549;47.028;15.514;2023-06-14T05:17:32;96269.50;;;17.12;70.86
10992;BME280;5549;47.028;15.514;2023-06-14T05:20:05;96266.56;;;17.07;70.26
10992;BME280;5549;47.028;15.514;2023-06-14T05:22:33;96271.88;;;17.07;70.82
10992;BME280;5549;47.028;15.514;2023-06-14T05:25:01;96275.34;;;17.08;70.83
10992;BME280;5549;47.028;15.514;2023-06-14T05:27:28;96276.00;;;17.10;71.92
10992;BME280;5549;47.028;15.514;2023-06-14T05:29:58;96280.00;;;17.06;73.77
10992;BME280;5549;47.028;15.514;2023-06-14T05:32:29;96281.66;;;17.07;74.06
10992;BME280;5549;47.028;15.514;2023-06-14T05:34:57;96284.97;;;17.09;74.01
10992;BME280;5549;47.028;15.514;2023-06-14T05:37:25;96284.97;;;17.09;74.41
10992;BME280;5549;47.028;15.514;2023-06-14T05:39:52;96278.31;;;17.13;74.24
10992;BME280;5549;47.028;15.514;2023-06-14T05:42:20;96282.59;;;17.14;75.14
10992;BME280;5549;47.028;15.514;2023-06-14T05:44:50;96282.31;;;17.09;75.79
10992;BME280;5549;47.028;15.514;2023-06-14T05:47:17;96282.31;;;17.09;75.72
10992;BME280;5549;47.028;15.514;2023-06-14T05:49:46;96288.75;;;17.14;75.65
10992;BME280;5549;47.028;15.514;2023-06-14T05:52:14;96295.81;;;17.22;75.68
10992;BME280;5549;47.028;15.514;2023-06-14T05:54:41;96295.81;;;17.22;75.15
10992;BME280;5549;47.028;15.514;2023-06-14T05:57:10;96293.69;;;17.17;73.50
10992;BME280;5549;47.028;15.514;2023-06-14T05:59:37;96295.81;;;17.22;72.36
10992;BME280;5549;47.028;15.514;2023-06-14T06:02:07;96296.94;;;17.27;70.96
10992;BME280;5549;47.028;15.514;2023-06-14T06:04:35;96304.91;;;17.27;70.92
10992;BME280;5549;47.028;15.514;2023-06-14T06:07:06;96306.19;;;17.31;71.59
10992;BME280;5549;47.028;15.514;2023-06-14T06:09:33;96309.00;;;17.38;71.32
10992;BME280;5549;47.028;15.514;2023-06-14T06:12:01;96302.09;;;17.52;72.89
10992;BME280;5549;47.028;15.514;2023-06-14T06:14:30;96303.16;;;17.66;73.73
10992;BME280;5549;47.028;15.514;2023-06-14T06:16:58;96303.09;;;17.74;73.44
10992;BME280;5549;47.028;15.514;2023-06-14T06:19:25;96308.34;;;17.82;72.48
10992;BME280;5549;47.028;15.514;2023-06-14T06:21:53;96310.63;;;17.85;72.01
10992;BME280;5549;47.028;15.514;2023-06-14T06:24:22;96330.16;;;17.92;71.54
10992;BME280;5549;47.028;15.514;2023-06-14T06:26:52;96334.28;;;17.94;71.27
10992;BME280;5549;47.028;15.514;2023-06-14T06:29:22;96339.25;;;17.98;71.38
10992;BME280;5549;47.028;15.514;2023-06-14T06:31:52;96335.91;;;17.81;69.17
10992;BME280;5549;47.028;15.514;2023-06-14T06:34:19;96334.00;;;16.34;74.77
10992;BME280;5549;47.028;15.514;2023-06-14T06:36:47;96340.97;;;15.22;76.27
10992;BME280;5549;47.028;15.514;2023-06-14T06:39:14;96337.34;;;15.39;76.40
10992;BME280;5549;47.028;15.514;2023-06-14T06:41:43;96339.59;;;15.01;78.79
10992;BME280;5549;47.028;15.514;2023-06-14T06:44:11;96343.41;;;15.07;78.21
10992;BME280;5549;47.028;15.514;2023-06-14T06:46:40;96343.78;;;15.20;76.13
10992;BME280;5549;47.028;15.514;2023-06-14T06:49:09;96349.06;;;15.20;75.06
10992;BME280;5549;47.028;15.514;2023-06-14T06:51:41;96344.88;;;15.01;76.39
10992;BME280;5549;47.028;15.514;2023-06-14T06:54:09;96354.13;;;14.89;76.84
10992;BME280;5549;47.028;15.514;2023-06-14T06:56:39;96357.94;;;15.03;75.92
10992;BME280;5549;47.028;15.514;2023-06-14T06:59:07;96361.47;;;15.28;75.98
10992;BME280;5549;47.028;15.514;2023-06-14T07:01:35;96367.69;;;15.02;76.63
10992;BME280;5549;47.028;15.514;2023-06-14T07:04:03;96361.31;;;15.37;76.59
10992;BME280;5549;47.028;15.514;2023-06-14T07:06:33;96355.03;;;15.22;76.92
10992;BME280;5549;47.028;15.514;2023-06-14T07:09:01;96360.63;;;15.11;76.14
10992;BME280;5549;47.028;15.514;2023-06-14T07:11:32;96367.03;;;15.00;74.90
10992;BME280;5549;47.028;15.514;2023-06-14T07:14:00;96367.16;;;14.83;76.26
10992;BME280;5549;47.028;15.514;2023-06-14T07:16:29;96373.06;;;14.76;77.11
10992;BME280;5549;47.028;15.514;2023-06-14T07:18:59;96378.47;;;15.09;76.91
10992;BME280;5549;47.028;15.514;2023-06-14T07:21:29;96385.53;;;15.00;77.95
10992;BME280;5549;47.028;15.514;2023-06-14T07:23:59;96386.25;;;15.11;76.44
10992;BME280;5549;47.028;15.514;2023-06-14T07:26:27;96402.84;;;14.87;79.18
10992;BME280;5549;47.028;15.514;2023-06-14T07:28:56;96396.34;;;14.73;78.74
10992;BME280;5549;47.028;15.514;2023-06-14T07:31:24;96396.06;;;14.50;81.22
10992;BME280;5549;47.028;15.514;2023-06-14T07:33:54;96402.28;;;14.15;82.25
10992;BME280;5549;47.028;15.514;2023-06-14T07:36:22;96405.75;;;14.16;83.19
10992;BME280;5549;47.028;15.514;2023-06-14T07:38:52;96403.97;;;14.24;83.97
10992;BME280;5549;47.028;15.514;2023-06-14T07:41:20;96405.22;;;14.12;83.31
10992;BME280;5549;47.028;15.514;2023-06-14T07:43:48;96408.56;;;13.96;82.64
10992;BME280;5549;47.028;15.514;2023-06-14T07:46:15;96406.13;;;13.85;83.95
10992;BME280;5549;47.028;15.514;2023-06-14T07:48:43;96411.81;;;13.90;84.47
10992;BME280;5549;47.028;15.514;2023-06-14T07:51:15;96414.69;;;13.97;85.15
10992;BME280;5549;47.028;15.514;2023-06-14T07:53:45;96423.94;;;14.01;85.16
10992;BME280;5549;47.028;15.514;2023-06-14T07:56:13;96420.38;;;14.10;83.54
10992;BME280;5549;47.028;15.514;2023-06-14T07:58:40;96419.03;;;14.06;84.11
10992;BME280;5549;47.028;15.514;2023-06-14T08:01:10;96420.53;;;14.08;82.99
10992;BME280;5549;47.028;15.514;2023-06-14T08:03:38;96425.00;;;14.08;84.28
10992;BME280;5549;47.028;15.514;2023-06-14T08:06:06;96426.56;;;14.19;84.36
10992;BME280;5549;47.028;15.514;2023-06-14T08:08:38;96427.13;;;14.30;84.63
10992;BME280;5549;47.028;15.514;2023-06-14T08:11:05;96432.28;;;14.58;83.96
10992;BME280;5549;47.028;15.514;2023-06-14T08:13:33;96436.44;;;14.94;82.09
10992;BME280;5549;47.028;15.514;2023-06-14T08:16:02;96447.41;;;15.16;81.86
10992;BME280;5549;47.028;15.514;2023-06-14T08:18:33;96451.28;;;15.29;80.41
10992;BME280;5549;47.028;15.514;2023-06-14T08:21:01;96460.72;;;15.40;80.67
10992;BME280;5549;47.028;15.514;2023-06-14T08:23:31;96466.88;;;15.57;80.82
10992;BME280;5549;47.028;15.514;2023-06-14T08:26:02;96471.78;;;15.69;81.16
10992;BME280;5549;47.028;15.514;2023-06-14T08:28:30;96458.88;;;15.75;80.10
10992;BME280;5549;47.028;15.514;2023-06-14T08:31:00;96467.50;;;15.85;80.43
10992;BME280;5549;47.028;15.514;2023-06-14T08:33:30;96472.47;;;15.88;80.84
10992;BME280;5549;47.028;15.514;2023-06-14T08:35:59;96472.13;;;15.83;78.83
10992;BME280;5549;47.028;15.514;2023-06-14T08:38:26;96471.16;;;15.92;77.60
10992;BME280;5549;47.028;15.514;2023-06-14T08:40:58;96472.47;;;15.96;77.17
10992;BME280;5549;47.028;15.514;2023-06-14T08:43:27;96477.59;;;15.89;78.69
10992;BME280;5549;47.028;15.514;2023-06-14T08:46:00;96475.59;;;15.75;80.09
10992;BME280;5549;47.028;15.514;2023-06-14T08:48:29;96477.09;;;15.44;77.59
10992;BME280;5549;47.028;15.514;2023-06-14T08:51:00;96480.56;;;15.36;75.63
10992;BME280;5549;47.028;15.514;2023-06-14T08:53:31;96492.06;;;15.19;76.71
10992;BME280;5549;47.028;15.514;2023-06-14T08:56:00;96489.47;;;15.35;76.33
10992;BME280;5549;47.028;15.514;2023-06-14T08:58:32;96489.47;;;15.35;76.80
10992;BME280;5549;47.028;15.514;2023-06-14T09:01:02;96490.41;;;15.18;78.79
10992;BME280;5549;47.028;15.514;2023-06-14T09:03:30;96481.13;;;15.14;79.72
10992;BME280;5549;47.028;15.514;2023-06-14T09:05:59;96484.03;;;14.94;80.03
10992;BME280;5549;47.028;15.514;2023-06-14T09:08:27;96486.53;;;14.70;82.62
10992;BME280;5549;47.028;15.514;2023-06-14T09:10:57;96490.69;;;14.72;83.22
10992;BME280;5549;47.028;15.514;2023-06-14T09:13:27;96488.13;;;14.89;82.76
10992;BME280;5549;47.028;15.514;2023-06-14T09:15:59;96485.72;;;15.03;81.57
10992;BME280;5549;47.028;15.514;2023-06-14T09:18:35;96492.03;;;15.11;81.66
10992;BME280;5549;47.028;15.514;2023-06-14T09:21:03;96502.94;;;15.07;84.41
10992;BME280;5549;47.028;15.514;2023-06-14T09:23:36;96497.31;;;15.11;85.74
10992;BME280;5549;47.028;15.514;2023-06-14T09:26:08;96499.06;;;15.28;86.01
10992;BME280;5549;47.028;15.514;2023-06-14T09:28:36;96498.41;;;15.34;86.18
10992;BME280;5549;47.028;15.514;2023-06-14T09:31:07;96496.19;;;15.13;85.19
10992;BME280;5549;47.028;15.514;2023-06-14T09:33:36;96498.34;;;15.18;85.24
10992;BME280;5549;47.028;15.514;2023-06-14T09:36:12;96495.78;;;15.42;84.50
10992;BME280;5549;47.028;15.514;2023-06-14T09:38:42;96495.78;;;15.42;83.77
10992;BME280;5549;47.028;15.514;2023-06-14T09:41:21;96493.47;;;15.39;83.90
10992;BME280;5549;47.028;15.514;2023-06-14T09:43:59;96495.28;;;15.38;83.36
10992;BME280;5549;47.028;15.514;2023-06-14T09:46:32;96481.06;;;15.39;84.09
10992;BME280;5549;47.028;15.514;2023-06-14T09:49:00;96485.06;;;15.01;86.73
10992;BME280;5549;47.028;15.514;2023-06-14T09:51:29;96482.75;;;15.06;86.30
10992;BME280;5549;47.028;15.514;2023-06-14T09:54:01;96491.94;;;15.28;86.09
10992;BME280;5549;47.028;15.514;2023-06-14T09:56:37;96485.72;;;15.46;85.66
10992;BME280;5549;47.028;15.514;2023-06-14T09:59:09;96489.25;;;15.20;85.20
10992;BME280;5549;47.028;15.514;2023-06-14T10:01:43;96494.66;;;15.45;85.53
10992;BME280;5549;47.028;15.514;2023-06-14T10:04:10;96498.16;;;15.53;85.43
10992;BME280;5549;47.028;15.514;2023-06-14T10:06:41;96501.25;;;15.75;84.55
10992;BME280;5549;47.028;15.514;2023-06-14T10:09:10;96495.94;;;15.75;83.90
10992;BME280;5549;47.028;15.514;2023-06-14T10:11:38;96506.41;;;15.92;83.43
10992;BME280;5549;47.028;15.514;2023-06-14T10:14:11;96495.81;;;15.92;82.77
10992;BME280;5549;47.028;15.514;2023-06-14T10:16:49;96503.78;;;16.09;82.27
10992;BME280;5549;47.028;15.514;2023-06-14T10:19:25;96502.63;;;16.44;82.64
10992;BME280;5549;47.028;15.514;2023-06-14T10:22:03;96495.00;;;16.65;82.54
10992;BME280;5549;47.028;15.514;2023-06-14T10:24:35;96496.78;;;16.64;82.79
10992;BME280;5549;47.028;15.514;2023-06-14T10:27:07;96496.13;;;16.79;82.26
10992;BME280;5549;47.028;15.514;2023-06-14T10:30:08;96492.59;;;17.03;81.65
10992;BME280;5549;47.028;15.514;2023-06-14T10:33:04;96491.31;;;16.90;80.33
10992;BME280;5549;47.028;15.514;2023-06-14T10:35:32;96485.19;;;17.29;80.01
10992;BME280;5549;47.028;15.514;2023-06-14T10:38:09;96491.13;;;17.47;79.38
10992;BME280;5549;47.028;15.514;2023-06-14T10:40:36;96490.28;;;17.47;78.27
10992;BME280;5549;47.028;15.514;2023-06-14T10:43:24;96490.41;;;17.92;77.48
10992;BME280;5549;47.028;15.514;2023-06-14T10:46:15;96486.53;;;18.41;78.17
10992;BME280;5549;47.028;15.514;2023-06-14T10:48:45;96485.38;;;18.58;76.98
10992;BME280;5549;47.028;15.514;2023-06-14T10:51:20;96473.63;;;19.05;76.15
10992;BME280;5549;47.028;15.514;2023-06-14T10:53:48;96480.03;;;18.81;68.66
10992;BME280;5549;47.028;15.514;2023-06-14T10:56:28;96471.63;;;19.36;72.71
10992;BME280;5549;47.028;15.514;2023-06-14T10:58:57;96468.09;;;19.65;69.59
10992;BME280;5549;47.028;15.514;2023-06-14T11:01:35;96470.59;;;19.67;63.12
10992;BME280;5549;47.028;15.514;2023-06-14T11:04:09;96473.84;;;19.83;58.83
10992;BME280;5549;47.028;15.514;2023-06-14T11:06:47;96470.81;;;20.08;62.37
10992;BME280;5549;47.028;15.514;2023-06-14T11:09:51;96462.00;;;20.07;60.29
10992;BME280;5549;47.028;15.514;2023-06-14T11:12:27;96465.34;;;20.16;61.09
10992;BME280;5549;47.028;15.514;2023-06-14T11:14:57;96460.19;;;20.36;60.89
10992;BME280;5549;47.028;15.514;2023-06-14T11:17:25;96462.63;;;20.31;60.20
10992;BME280;5549;47.028;15.514;2023-06-14T11:20:09;96464.03;;;20.48;59.76
10992;BME280;5549;47.028;15.514;2023-06-14T11:22:41;96456.25;;;20.53;59.49
10992;BME280;5549;47.028;15.514;2023-06-14T11:25:12;96461.41;;;20.33;59.20
10992;BME280;5549;47.028;15.514;2023-06-14T11:27:42;96460.00;;;20.59;59.68
10992;BME280;5549;47.028;15.514;2023-06-14T11:30:13;96465.28;;;20.52;60.91
10992;BME280;5549;47.028;15.514;2023-06-14T11:32:46;96459.19;;;20.15;59.65
10992;BME280;5549;47.028;15.514;2023-06-14T11:35:19;96456.28;;;19.38;62.71
10992;BME280;5549;47.028;15.514;2023-06-14T11:37:53;96455.44;;;19.67;61.93
10992;BME280;5549;47.028;15.514;2023-06-14T11:40:25;96446.56;;;20.03;59.99
10992;BME280;5549;47.028;15.514;2023-06-14T11:42:59;96446.03;;;20.35;59.28
10992;BME280;5549;47.028;15.514;2023-06-14T11:45:29;96453.53;;;20.25;58.50
10992;BME280;5549;47.028;15.514;2023-06-14T11:47:58;96449.66;;;20.49;56.08
10992;BME280;5549;47.028;15.514;2023-06-14T11:50:30;96447.72;;;20.64;58.30
10992;BME280;5549;47.028;15.514;2023-06-14T11:53:00;96446.59;;;20.52;58.00
10992;BME280;5549;47.028;15.514;2023-06-14T11:55:37;96445.06;;;20.64;58.82
10992;BME280;5549;47.028;15.514;2023-06-14T11:58:08;96446.56;;;20.73;55.53
10992;BME280;5549;47.028;15.514;2023-06-14T12:00:37;96450.97;;;20.38;55.75
10992;BME280;5549;47.028;15.514;2023-06-14T12:03:06;96445.41;;;20.83;55.16
10992;BME280;5549;47.028;15.514;2023-06-14T12:05:35;96443.06;;;20.73;54.30
10992;BME280;5549;47.028;15.514;2023-06-14T12:08:04;96451.94;;;20.52;53.63
10992;BME280;5549;47.028;15.514;2023-06-14T12:10:41;96439.28;;;20.61;54.17
10992;BME280;5549;47.028;15.514;2023-06-14T12:13:09;96431.22;;;20.54;54.21
10992;BME280;5549;47.028;15.514;2023-06-14T12:15:39;96437.34;;;20.48;52.61
10992;BME280;5549;47.028;15.514;2023-06-14T12:18:07;96436.56;;;20.54;51.91
10992;BME280;5549;47.028;15.514;2023-06-14T12:20:36;96435.84;;;20.39;57.20
10992;BME280;5549;47.028;15.514;2023-06-14T12:23:09;96443.06;;;20.02;58.12
10992;BME280;5549;47.028;15.514;2023-06-14T12:25:38;96438.75;;;20.23;58.22
10992;BME280;5549;47.028;15.514;2023-06-14T12:28:08;96436.81;;;20.38;56.59
10992;BME280;5549;47.028;15.514;2023-06-14T12:30:37;96440.22;;;20.46;59.07
10992;BME280;5549;47.028;15.514;2023-06-14T12:33:06;96439.75;;;20.22;59.50
10992;BME280;5549;47.028;15.514;2023-06-14T12:35:37;96431.88;;;20.35;57.98
10992;BME280;5549;47.028;15.514;2023-06-14T12:38:06;96430.94;;;20.21;57.25
10992;BME280;5549;47.028;15.514;2023-06-14T12:40:36;96437.75;;;20.02;57.07
10992;BME280;5549;47.028;15.514;2023-06-14T12:43:05;96442.44;;;20.22;56.94
10992;BME280;5549;47.028;15.514;2023-06-14T12:45:33;96434.53;;;20.35;57.90
10992;BME280;5549;47.028;15.514;2023-06-14T12:48:03;96429.63;;;20.10;58.23
10992;BME280;5549;47.028;15.514;2023-06-14T12:50:31;96431.63;;;20.30;57.72
10992;BME280;5549;47.028;15.514;2023-06-14T12:52:59;96432.41;;;20.45;58.15
10992;BME280;5549;47.028;15.514;2023-06-14T12:55:29;96427.91;;;19.81;58.99
10992;BME280;5549;47.028;15.514;2023-06-14T12:58:04;96429.47;;;19.54;61.85
10992;BME280;5549;47.028;15.514;2023-06-14T13:00:31;96425.50;;;19.50;60.62
10992;BME280;5549;47.028;15.514;2023-06-14T13:03:02;96430.13;;;19.99;60.58
10992;BME280;5549;47.028;15.514;2023-06-14T13:05:32;96428.59;;;20.11;58.82
10992;BME280;5549;47.028;15.514;2023-06-14T13:08:04;96420.72;;;20.46;59.02
10992;BME280;5549;47.028;15.514;2023-06-14T13:10:31;96421.81;;;20.58;59.57
10992;BME280;5549;47.028;15.514;2023-06-14T13:12:59;96424.63;;;20.50;58.55
10992;BME280;5549;47.028;15.514;2023-06-14T13:15:28;96413.97;;;20.50;57.21